Time,TemperatureF,DewpointF,PressureIn,WindDirection,WindDirectionDegrees,WindSpeedMPH,WindSpeedGustMPH,Humidity,HourlyPrecipIn,Conditions,Clouds,dailyrainin,SoftwareType,DateUTC
2013-03-09 00:01:00,30.2,21.9,30.19,South,180,2.0,2.6,71,0.00,RA,,0.00,WeatherDisplay:10.37,2013-03-09 06:01:00,
2013-03-09 00:06:00,30.2,21.6,30.19,SSE,158,2.9,4.6,70,0.00,RA,,0.00,WeatherDisplay:10.37,2013-03-09 06:06:00,
2013-03-09 00:11:00,30.2,21.6,30.16,SSE,158,2.0,3.5,70,0.00,CLR,,0.00,WeatherDisplay:10.37,2013-03-09 06:11:00,
2013-03-09 00:16:00,30.2,21.6,30.16,South,180,2.6,3.5,70,0.00,CLR,,0.00,WeatherDisplay:10.37,2013-03-09 06:16:00,
2013-03-09 00:21:00,30.0,21.4,30.16,South,180,1.6,2.3,70,0.00,CLR,,0.00,WeatherDisplay:10.37,2013-03-09 06:21:00,
2013-03-09 00:26:00,30.2,21.6,30.19,SE,135,3.3,3.5,70,0.00,CLR,,0.00,WeatherDisplay:10.37,2013-03-09 06:26:00,
2013-03-09 00:31:00,30.2,21.6,30.19,SE,135,4.0,5.8,70,0.00,CLR,,0.00,WeatherDisplay:10.37,2013-03-09 06:31:00,
2013-03-09 00:36:00,30.2,21.6,30.19,ESE,112,3.1,4.6,70,0.00,CLR,,0.00,WeatherDisplay:10.37,2013-03-09 06:36:00,
2013-03-09 00:41:00,30.4,21.8,30.19,SSE,158,2.6,2.6,70,0.00,CLR,,0.00,WeatherDisplay:10.37,2013-03-09 06:41:00,
2013-03-09 00:46:00,30.6,21.9,30.19,ESE,112,3.6,5.8,70,0.00,CLR,,0.00,WeatherDisplay:10.37,2013-03-09 06:46:00,
2013-03-09 00:51:00,30.6,21.9,30.19,SSE,158,2.4,4.6,70,0.00,CLR,,0.00,WeatherDisplay:10.37,2013-03-09 06:51:00,
2013-03-09 00:56:00,30.6,21.6,30.19,SSE,158,2.6,5.8,69,0.00,CLR,,0.00,WeatherDisplay:10.37,2013-03-09 06:56:00,
2013-03-09 01:01:00,30.7,21.8,30.19,South,180,4.7,5.8,69,0.00,CLR,,0.00,WeatherDisplay:10.37,2013-03-09 07:01:00,
2013-03-09 01:06:00,30.7,21.8,30.19,ESE,112,2.9,3.5,69,0.00,CLR,,0.00,WeatherDisplay:10.37,2013-03-09 07:06:00,
2013-03-09 01:11:00,30.7,21.8,30.16,ESE,112,3.1,4.6,69,0.00,CLR,,0.00,WeatherDisplay:10.37,2013-03-09 07:11:00,
2013-03-09 01:16:00,30.9,21.9,30.16,ESE,112,3.3,4.9,69,0.00,CLR,,0.00,WeatherDisplay:10.37,2013-03-09 07:16:00,
2013-03-09 01:21:00,30.9,21.9,30.16,South,180,2.2,4.6,69,0.00,CLR,,0.00,WeatherDisplay:10.37,2013-03-09 07:21:00,
2013-03-09 01:26:00,30.9,21.9,30.16,SSW,202,4.7,8.1,69,0.00,CLR,,0.00,WeatherDisplay:10.37,2013-03-09 07:26:00,
2013-03-09 01:31:00,31.1,22.1,30.16,SE,135,3.6,4.6,69,0.00,CLR,,0.00,WeatherDisplay:10.37,2013-03-09 07:31:00,
2013-03-09 01:36:00,31.1,22.1,30.16,South,180,4.3,5.8,69,0.00,CLR,,0.00,WeatherDisplay:10.37,2013-03-09 07:36:00,
2013-03-09 01:41:00,31.1,21.8,30.16,ESE,112,4.5,5.8,68,0.00,CLR,,0.00,WeatherDisplay:10.37,2013-03-09 07:41:00,
2013-03-09 01:46:00,31.3,21.9,30.16,South,180,3.8,5.8,68,0.00,CLR,,0.00,WeatherDisplay:10.37,2013-03-09 07:46:00,
2013-03-09 01:51:00,31.3,21.9,30.16,SSE,158,4.3,8.1,68,0.00,CLR,,0.00,WeatherDisplay:10.37,2013-03-09 07:51:00,
2013-03-09 01:56:00,31.5,22.1,30.16,SSE,158,5.9,8.1,68,0.00,CLR,,0.00,WeatherDisplay:10.37,2013-03-09 07:56:00,
2013-03-09 02:01:00,31.6,22.3,30.16,South,180,6.9,9.2,68,0.00,CLR,,0.00,WeatherDisplay:10.37,2013-03-09 08:01:00,
2013-03-09 02:06:00,31.6,22.3,30.16,SE,135,5.9,8.5,68,0.00,CLR,,0.00,WeatherDisplay:10.37,2013-03-09 08:06:00,
2013-03-09 02:11:00,31.6,22.3,30.13,South,180,5.4,9.2,68,0.00,CLR,,0.00,WeatherDisplay:10.37,2013-03-09 08:11:00,
2013-03-09 02:16:00,31.6,22.3,30.13,SE,135,4.0,7.6,68,0.00,CLR,,0.00,WeatherDisplay:10.37,2013-03-09 08:16:00,
2013-03-09 02:21:00,31.6,22.3,30.13,South,180,5.6,6.9,68,0.00,CLR,,0.00,WeatherDisplay:10.37,2013-03-09 08:21:00,
2013-03-09 02:26:00,31.8,22.5,30.13,ESE,112,5.4,6.9,68,0.00,CLR,,0.00,WeatherDisplay:10.37,2013-03-09 08:26:00,
2013-03-09 02:31:00,31.8,22.5,30.13,SSE,158,4.3,5.9,68,0.00,CLR,,0.00,WeatherDisplay:10.37,2013-03-09 08:31:00,
2013-03-09 02:36:00,31.8,22.5,30.13,South,180,4.7,5.8,68,0.00,CLR,,0.00,WeatherDisplay:10.37,2013-03-09 08:36:00,
2013-03-09 02:41:00,31.8,22.8,30.13,South,180,6.0,6.2,69,0.00,CLR,,0.00,WeatherDisplay:10.37,2013-03-09 08:41:00,
2013-03-09 02:46:00,32.0,23.0,30.13,SSE,158,4.5,6.0,69,0.00,CLR,,0.00,WeatherDisplay:10.37,2013-03-09 08:46:00,
2013-03-09 02:51:00,32.0,23.0,30.13,SSE,158,4.9,8.1,69,0.00,CLR,,0.00,WeatherDisplay:10.37,2013-03-09 08:51:00,
2013-03-09 02:56:00,32.2,23.1,30.10,SE,135,4.9,9.2,69,0.00,CLR,,0.00,WeatherDisplay:10.37,2013-03-09 08:56:00,
2013-03-09 03:01:00,32.2,23.1,30.10,SSE,158,4.9,6.9,69,0.00,CLR,,0.00,WeatherDisplay:10.37,2013-03-09 09:01:00,
2013-03-09 03:06:00,32.2,22.8,30.10,SE,135,6.2,8.1,68,0.00,CLR,,0.00,WeatherDisplay:10.37,2013-03-09 09:06:00,
2013-03-09 03:11:00,32.2,23.1,30.10,SE,135,4.9,5.8,69,0.00,CLR,,0.00,WeatherDisplay:10.37,2013-03-09 09:11:00,
2013-03-09 03:16:00,32.2,23.1,30.10,SSE,158,3.8,6.9,69,0.00,CLR,,0.00,WeatherDisplay:10.37,2013-03-09 09:16:00,
2013-03-09 03:21:00,32.2,23.1,30.10,SSE,158,4.3,5.8,69,0.00,CLR,,0.00,WeatherDisplay:10.37,2013-03-09 09:21:00,
2013-03-09 03:26:00,32.4,23.3,30.10,SSE,158,6.0,8.1,69,0.00,CLR,,0.00,WeatherDisplay:10.37,2013-03-09 09:26:00,
2013-03-09 03:31:00,32.4,23.3,30.10,SE,135,3.6,5.8,69,0.00,CLR,,0.00,WeatherDisplay:10.37,2013-03-09 09:31:00,
2013-03-09 03:36:00,32.5,23.5,30.10,SE,135,3.3,4.6,69,0.00,CLR,,0.00,WeatherDisplay:10.37,2013-03-09 09:36:00,
2013-03-09 03:41:00,32.5,23.5,30.10,SSE,158,3.8,5.8,69,0.00,CLR,,0.00,WeatherDisplay:10.37,2013-03-09 09:41:00,
2013-03-09 03:46:00,32.5,23.5,30.10,SE,135,3.8,5.8,69,0.00,CLR,,0.00,WeatherDisplay:10.37,2013-03-09 09:46:00,
2013-03-09 03:51:00,32.5,23.5,30.10,SE,135,3.8,4.6,69,0.00,CLR,,0.00,WeatherDisplay:10.37,2013-03-09 09:51:00,
2013-03-09 03:56:00,32.7,23.7,30.10,SE,135,2.2,4.6,69,0.00,CLR,,0.00,WeatherDisplay:10.37,2013-03-09 09:56:00,
2013-03-09 04:01:00,32.7,23.7,30.10,SSE,158,2.4,4.6,69,0.00,CLR,,0.00,WeatherDisplay:10.37,2013-03-09 10:01:00,
2013-03-09 04:06:00,32.7,23.3,30.10,West,270,2.0,4.6,68,0.00,CLR,,0.00,WeatherDisplay:10.37,2013-03-09 10:06:00,
2013-03-09 04:11:00,32.7,23.3,30.07,SSE,158,1.4,2.3,68,0.00,CLR,,0.00,WeatherDisplay:10.37,2013-03-09 10:11:00,
2013-03-09 04:16:00,32.9,23.5,30.07,SSE,158,3.3,3.5,68,0.00,CLR,,0.00,WeatherDisplay:10.37,2013-03-09 10:16:00,
2013-03-09 04:21:00,32.7,23.3,30.07,SE,135,2.4,4.6,68,0.00,CLR,,0.00,WeatherDisplay:10.37,2013-03-09 10:21:00,
2013-03-09 04:26:00,32.9,23.5,30.10,ESE,112,2.6,4.6,68,0.00,CLR,,0.00,WeatherDisplay:10.37,2013-03-09 10:26:00,
2013-03-09 04:31:00,32.9,23.5,30.10,South,180,4.0,4.6,68,0.00,CLR,,0.00,WeatherDisplay:10.37,2013-03-09 10:31:00,
2013-03-09 04:36:00,32.9,23.5,30.10,South,180,3.3,4.6,68,0.00,CLR,,0.00,WeatherDisplay:10.37,2013-03-09 10:36:00,
2013-03-09 04:41:00,32.9,23.5,30.13,ESE,112,2.0,2.4,68,0.00,CLR,,0.00,WeatherDisplay:10.37,2013-03-09 10:41:00,
2013-03-09 04:46:00,32.7,23.3,30.13,SSW,202,0.0,0.0,68,0.00,CLR,,0.00,WeatherDisplay:10.37,2013-03-09 10:46:00,
2013-03-09 04:51:00,32.7,23.3,30.13,ESE,112,0.0,2.3,68,0.00,CLR,,0.00,WeatherDisplay:10.37,2013-03-09 10:51:00,
2013-03-09 04:56:00,32.7,23.3,30.10,South,180,1.1,2.4,68,0.00,CLR,,0.00,WeatherDisplay:10.37,2013-03-09 10:56:00,
2013-03-09 05:01:00,32.7,23.3,30.10,SSW,202,0.0,1.1,68,0.00,CLR,,0.00,WeatherDisplay:10.37,2013-03-09 11:01:00,
2013-03-09 05:06:00,32.7,23.3,30.10,ESE,112,0.0,0.0,68,0.00,CLR,,0.00,WeatherDisplay:10.37,2013-03-09 11:06:00,
2013-03-09 05:11:00,32.7,23.3,30.10,ESE,112,2.2,2.3,68,0.00,CLR,,0.00,WeatherDisplay:10.37,2013-03-09 11:11:00,
2013-03-09 05:16:00,32.7,23.7,30.10,SE,135,2.0,2.3,69,0.00,CLR,,0.00,WeatherDisplay:10.37,2013-03-09 11:16:00,
2013-03-09 05:21:00,32.7,23.7,30.10,ESE,112,0.0,2.3,69,0.00,CLR,,0.00,WeatherDisplay:10.37,2013-03-09 11:21:00,
2013-03-09 05:26:00,32.7,23.7,30.07,SE,135,1.1,2.3,69,0.00,CLR,,0.00,WeatherDisplay:10.37,2013-03-09 11:26:00,
2013-03-09 05:31:00,32.7,24.0,30.07,SSW,202,2.2,4.6,70,0.00,CLR,,0.00,WeatherDisplay:10.37,2013-03-09 11:31:00,
2013-03-09 05:36:00,32.5,23.8,30.07,ESE,112,2.2,2.9,70,0.00,CLR,,0.00,WeatherDisplay:10.37,2013-03-09 11:36:00,
2013-03-09 05:41:00,32.5,24.2,30.10,ESE,112,3.6,4.6,71,0.00,CLR,,0.00,WeatherDisplay:10.37,2013-03-09 11:41:00,
2013-03-09 05:46:00,32.5,24.2,30.10,East,90,3.1,6.0,71,0.00,CLR,,0.00,WeatherDisplay:10.37,2013-03-09 11:46:00,
2013-03-09 05:51:00,32.5,24.2,30.10,ESE,112,4.0,5.8,71,0.00,CLR,,0.00,WeatherDisplay:10.37,2013-03-09 11:51:00,
2013-03-09 05:56:00,32.5,24.2,30.07,ESE,112,3.1,4.3,71,0.00,CLR,,0.00,WeatherDisplay:10.37,2013-03-09 11:56:00,
2013-03-09 06:01:00,32.5,24.2,30.07,SE,135,4.7,5.8,71,0.00,CLR,,0.00,WeatherDisplay:10.37,2013-03-09 12:01:00,
2013-03-09 06:06:00,32.5,24.2,30.07,SSE,158,3.6,4.6,71,0.00,CLR,,0.00,WeatherDisplay:10.37,2013-03-09 12:06:00,
2013-03-09 06:11:00,32.7,24.3,30.10,SSE,158,2.6,3.5,71,0.00,CLR,,0.00,WeatherDisplay:10.37,2013-03-09 12:11:00,
2013-03-09 06:16:00,32.7,24.3,30.10,East,90,3.1,3.5,71,0.00,CLR,,0.00,WeatherDisplay:10.37,2013-03-09 12:16:00,
2013-03-09 06:21:00,32.7,24.3,30.10,ESE,112,3.3,4.3,71,0.00,CLR,,0.00,WeatherDisplay:10.37,2013-03-09 12:21:00,
2013-03-09 06:26:00,32.9,24.5,30.07,South,180,2.4,3.5,71,0.00,CLR,,0.00,WeatherDisplay:10.37,2013-03-09 12:26:00,
2013-03-09 06:31:00,33.1,24.7,30.07,SSE,158,2.4,4.6,71,0.00,CLR,,0.00,WeatherDisplay:10.37,2013-03-09 12:31:00,
2013-03-09 06:36:00,33.1,24.4,30.07,SE,135,2.4,4.7,70,0.00,CLR,,0.00,WeatherDisplay:10.37,2013-03-09 12:36:00,
2013-03-09 06:41:00,33.1,24.4,30.07,SE,135,2.4,4.9,70,0.00,CLR,,0.00,WeatherDisplay:10.37,2013-03-09 12:41:00,
2013-03-09 06:46:00,33.1,24.4,30.07,SE,135,3.8,5.8,70,0.00,CLR,,0.00,WeatherDisplay:10.37,2013-03-09 12:46:00,
2013-03-09 06:51:00,33.3,24.5,30.07,ESE,112,2.6,4.6,70,0.00,CLR,,0.00,WeatherDisplay:10.37,2013-03-09 12:51:00,
2013-03-09 06:56:00,33.3,24.5,30.07,South,180,2.4,3.5,70,0.00,CLR,,0.00,WeatherDisplay:10.37,2013-03-09 12:56:00,
2013-03-09 07:01:00,33.4,24.7,30.07,ESE,112,2.4,3.5,70,0.00,CLR,,0.00,WeatherDisplay:10.37,2013-03-09 13:01:00,
2013-03-09 07:06:00,33.4,24.7,30.07,South,180,4.3,5.8,70,0.00,CLR,,0.00,WeatherDisplay:10.37,2013-03-09 13:06:00,
2013-03-09 07:11:00,33.6,24.9,30.07,South,180,4.3,5.8,70,0.00,CLR,,0.00,WeatherDisplay:10.37,2013-03-09 13:11:00,
2013-03-09 07:16:00,33.8,25.0,30.07,SE,135,2.9,3.6,70,0.00,CLR,,0.00,WeatherDisplay:10.37,2013-03-09 13:16:00,
2013-03-09 07:21:00,34.0,24.9,30.07,SSE,158,4.0,4.6,69,0.00,CLR,,0.00,WeatherDisplay:10.37,2013-03-09 13:21:00,
2013-03-09 07:26:00,34.5,25.0,30.07,SE,135,4.0,4.9,68,0.00,CLR,,0.00,WeatherDisplay:10.37,2013-03-09 13:26:00,
2013-03-09 07:31:00,34.7,24.9,30.07,SSW,202,4.3,4.6,67,0.00,CLR,,0.00,WeatherDisplay:10.37,2013-03-09 13:31:00,
2013-03-09 07:36:00,34.9,24.7,30.07,South,180,5.9,8.1,66,0.00,CLR,,0.00,WeatherDisplay:10.37,2013-03-09 13:36:00,
2013-03-09 07:41:00,35.1,25.2,30.04,SE,135,5.4,5.8,67,0.00,CLR,,0.00,WeatherDisplay:10.37,2013-03-09 13:41:00,
2013-03-09 07:46:00,35.1,25.2,30.04,SE,135,6.9,10.4,67,0.00,CLR,,0.00,WeatherDisplay:10.37,2013-03-09 13:46:00,
2013-03-09 07:51:00,35.1,25.6,30.04,SSE,158,4.5,12.7,68,0.00,CLR,,0.00,WeatherDisplay:10.37,2013-03-09 13:51:00,
2013-03-09 07:57:00,34.9,26.4,30.04,SSE,158,6.4,16.1,71,0.00,CLR,,0.00,WeatherDisplay:10.37,2013-03-09 13:57:00,
2013-03-09 08:02:00,34.7,27.3,30.04,SSE,158,9.0,11.5,74,0.00,CLR,,0.00,WeatherDisplay:10.37,2013-03-09 14:02:00,
2013-03-09 08:07:00,34.3,27.9,30.04,SE,135,6.2,8.1,77,0.00,CLR,,0.00,WeatherDisplay:10.37,2013-03-09 14:07:00,
2013-03-09 08:12:00,34.3,28.5,30.01,SSE,158,8.5,10.7,79,0.00,CLR,,0.00,WeatherDisplay:10.37,2013-03-09 14:12:00,
2013-03-09 08:17:00,34.3,28.5,30.01,SSE,158,7.8,10.4,79,0.02,RA,,0.02,WeatherDisplay:10.37,2013-03-09 14:17:00,
2013-03-09 08:22:00,34.3,28.8,30.01,SSE,158,6.0,10.4,80,0.02,RA,,0.02,WeatherDisplay:10.37,2013-03-09 14:22:00,
2013-03-09 08:27:00,34.5,28.7,29.98,SSE,158,7.4,8.1,79,0.02,CLR,,0.02,WeatherDisplay:10.37,2013-03-09 14:27:00,
2013-03-09 08:32:00,34.9,29.0,29.98,SE,135,5.4,7.8,79,0.02,CLR,,0.02,WeatherDisplay:10.37,2013-03-09 14:32:00,
2013-03-09 08:37:00,35.1,29.2,29.98,SSE,158,7.4,13.0,79,0.02,CLR,,0.02,WeatherDisplay:10.37,2013-03-09 14:37:00,
2013-03-09 08:42:00,35.4,29.2,30.01,SE,135,7.1,9.2,78,0.02,CLR,,0.02,WeatherDisplay:10.37,2013-03-09 14:42:00,
2013-03-09 08:47:00,35.8,29.3,30.01,South,180,6.0,10.4,77,0.02,CLR,,0.02,WeatherDisplay:10.37,2013-03-09 14:47:00,
2013-03-09 08:52:00,36.5,29.7,30.01,SSE,158,6.7,10.4,76,0.02,CLR,,0.02,WeatherDisplay:10.37,2013-03-09 14:52:00,
2013-03-09 08:57:00,37.6,29.7,30.01,SSE,158,5.9,6.9,73,0.02,CLR,,0.02,WeatherDisplay:10.37,2013-03-09 14:57:00,
2013-03-09 09:02:00,38.3,29.4,30.01,ESE,112,6.4,10.4,70,0.02,CLR,,0.02,WeatherDisplay:10.37,2013-03-09 15:02:00,
2013-03-09 09:07:00,39.6,29.9,30.01,ESE,112,6.0,6.9,68,0.02,CLR,,0.02,WeatherDisplay:10.37,2013-03-09 15:07:00,
2013-03-09 09:12:00,41.0,29.4,29.98,SSE,158,6.0,8.1,63,0.02,CLR,,0.02,WeatherDisplay:10.37,2013-03-09 15:12:00,
2013-03-09 09:17:00,40.1,28.1,29.98,South,180,8.5,10.4,62,0.00,CLR,,0.02,WeatherDisplay:10.37,2013-03-09 15:17:00,
2013-03-09 09:22:00,39.0,27.5,29.98,South,180,4.9,8.1,63,0.00,CLR,,0.02,WeatherDisplay:10.37,2013-03-09 15:22:00,
2013-03-09 09:27:00,38.5,27.7,30.01,South,180,7.4,9.2,65,0.00,CLR,,0.02,WeatherDisplay:10.37,2013-03-09 15:27:00,
2013-03-09 09:32:00,38.1,27.8,30.01,SSE,158,7.4,10.4,66,0.00,CLR,,0.02,WeatherDisplay:10.37,2013-03-09 15:32:00,
2013-03-09 09:37:00,37.9,28.0,30.01,SSE,158,6.4,7.8,67,0.00,CLR,,0.02,WeatherDisplay:10.37,2013-03-09 15:37:00,
2013-03-09 09:42:00,37.6,28.0,29.98,SSE,158,4.7,10.2,68,0.00,CLR,,0.02,WeatherDisplay:10.37,2013-03-09 15:42:00,
2013-03-09 09:47:00,37.2,28.0,29.98,SSW,202,8.7,10.4,69,0.00,CLR,,0.02,WeatherDisplay:10.37,2013-03-09 15:47:00,
2013-03-09 09:52:00,37.2,28.3,29.98,South,180,8.1,13.8,70,0.00,CLR,,0.02,WeatherDisplay:10.37,2013-03-09 15:52:00,
2013-03-09 09:57:00,37.4,28.5,29.95,South,180,5.6,8.1,70,0.00,CLR,,0.02,WeatherDisplay:10.37,2013-03-09 15:57:00,
2013-03-09 10:02:00,37.6,28.7,29.95,SSW,202,3.8,5.8,70,0.02,RA,,0.04,WeatherDisplay:10.37,2013-03-09 16:02:00,
2013-03-09 10:07:00,37.8,28.9,29.95,South,180,4.5,9.2,70,0.02,RA,,0.04,WeatherDisplay:10.37,2013-03-09 16:07:00,
2013-03-09 10:12:00,38.1,28.8,29.95,SE,135,5.6,11.5,69,0.02,,,0.04,WeatherDisplay:10.37,2013-03-09 16:12:00,
2013-03-09 10:17:00,38.3,29.0,29.95,SSE,158,5.9,11.5,69,0.02,CLR,,0.04,WeatherDisplay:10.37,2013-03-09 16:17:00,
2013-03-09 10:22:00,38.3,29.0,29.95,ESE,112,7.4,11.5,69,0.02,CLR,,0.04,WeatherDisplay:10.37,2013-03-09 16:22:00,
2013-03-09 10:27:00,38.8,29.2,29.92,South,180,6.9,10.7,68,0.02,CLR,,0.04,WeatherDisplay:10.37,2013-03-09 16:27:00,
2013-03-09 10:32:00,38.8,29.2,29.92,SSE,158,5.6,10.4,68,0.02,CLR,,0.04,WeatherDisplay:10.37,2013-03-09 16:32:00,
2013-03-09 10:37:00,39.0,28.6,29.92,SSE,158,6.4,11.5,66,0.02,CLR,,0.04,WeatherDisplay:10.37,2013-03-09 16:37:00,
2013-03-09 10:42:00,39.2,28.8,29.95,SE,135,7.1,10.4,66,0.02,CLR,,0.04,WeatherDisplay:10.37,2013-03-09 16:42:00,
2013-03-09 10:47:00,39.2,28.4,29.95,ESE,112,7.8,12.7,65,0.02,CLR,,0.04,WeatherDisplay:10.37,2013-03-09 16:47:00,
2013-03-09 10:52:00,39.2,28.4,29.95,South,180,7.1,11.5,65,0.02,CLR,,0.04,WeatherDisplay:10.37,2013-03-09 16:52:00,
2013-03-09 10:57:00,39.4,28.2,29.95,SSE,158,6.9,10.0,64,0.02,CLR,,0.04,WeatherDisplay:10.37,2013-03-09 16:57:00,
2013-03-09 11:02:00,39.4,28.2,29.95,South,180,9.7,11.5,64,0.00,CLR,,0.04,WeatherDisplay:10.37,2013-03-09 17:02:00,
2013-03-09 11:07:00,39.2,28.0,29.95,SSE,158,7.4,13.8,64,0.00,CLR,,0.04,WeatherDisplay:10.37,2013-03-09 17:07:00,
2013-03-09 11:12:00,39.4,28.2,29.92,South,180,9.4,17.3,64,0.00,CLR,,0.04,WeatherDisplay:10.37,2013-03-09 17:12:00,
2013-03-09 11:17:00,39.6,28.4,29.92,SSE,158,4.3,6.9,64,0.00,CLR,,0.04,WeatherDisplay:10.37,2013-03-09 17:17:00,
2013-03-09 11:22:00,39.4,28.2,29.92,SSE,158,6.9,9.2,64,0.00,CLR,,0.04,WeatherDisplay:10.37,2013-03-09 17:22:00,
2013-03-09 11:27:00,39.2,28.0,29.92,SSE,158,10.9,16.1,64,0.00,CLR,,0.04,WeatherDisplay:10.37,2013-03-09 17:27:00,
2013-03-09 11:32:00,39.2,28.4,29.92,SSW,202,9.4,17.3,65,0.00,CLR,,0.04,WeatherDisplay:10.37,2013-03-09 17:32:00,
2013-03-09 11:37:00,39.4,29.0,29.92,SSE,158,7.1,12.7,66,0.00,CLR,,0.04,WeatherDisplay:10.37,2013-03-09 17:37:00,
2013-03-09 11:42:00,39.6,29.1,29.89,SSE,158,4.3,5.8,66,0.00,CLR,,0.04,WeatherDisplay:10.37,2013-03-09 17:42:00,
2013-03-09 11:47:00,39.7,29.3,29.89,SSW,202,7.1,10.4,66,0.00,CLR,,0.04,WeatherDisplay:10.37,2013-03-09 17:47:00,
2013-03-09 11:52:00,39.2,29.9,29.89,SE,135,9.4,15.0,69,0.00,CLR,,0.04,WeatherDisplay:10.37,2013-03-09 17:52:00,
2013-03-09 11:57:00,39.2,30.2,29.89,South,180,8.7,12.7,70,0.00,CLR,,0.04,WeatherDisplay:10.37,2013-03-09 17:57:00,
2013-03-09 12:02:00,39.4,30.4,29.89,ESE,112,6.7,10.4,70,0.00,CLR,,0.04,WeatherDisplay:10.37,2013-03-09 18:02:00,
2013-03-09 12:07:00,39.4,30.8,29.89,SSW,202,7.8,10.4,71,0.00,CLR,,0.04,WeatherDisplay:10.37,2013-03-09 18:07:00,
2013-03-09 12:12:00,39.4,30.8,29.89,South,180,9.4,13.8,71,0.00,CLR,,0.04,WeatherDisplay:10.37,2013-03-09 18:12:00,
2013-03-09 12:17:00,39.2,31.3,29.89,South,180,10.2,15.0,73,0.00,CLR,,0.04,WeatherDisplay:10.37,2013-03-09 18:17:00,
2013-03-09 12:22:00,38.8,31.6,29.89,SSE,158,12.3,16.1,75,0.00,CLR,,0.04,WeatherDisplay:10.37,2013-03-09 18:22:00,
2013-03-09 12:27:00,38.8,31.9,29.89,SSE,158,8.5,13.7,76,0.00,CLR,,0.04,WeatherDisplay:10.37,2013-03-09 18:27:00,
2013-03-09 12:32:00,38.8,31.6,29.89,SSE,158,8.1,10.4,75,0.00,CLR,,0.04,WeatherDisplay:10.37,2013-03-09 18:32:00,
2013-03-09 12:37:00,38.8,31.6,29.89,SE,135,9.7,15.0,75,0.00,CLR,,0.04,WeatherDisplay:10.37,2013-03-09 18:37:00,
2013-03-09 12:42:00,38.8,31.6,29.86,SE,135,12.3,16.6,75,0.00,CLR,,0.04,WeatherDisplay:10.37,2013-03-09 18:42:00,
2013-03-09 12:47:00,39.0,31.8,29.86,SSE,158,8.1,10.4,75,0.00,CLR,,0.04,WeatherDisplay:10.37,2013-03-09 18:47:00,
2013-03-09 12:52:00,39.0,31.8,29.86,SSE,158,5.4,10.4,75,0.00,CLR,,0.04,WeatherDisplay:10.37,2013-03-09 18:52:00,
2013-03-09 12:57:00,39.2,31.6,29.86,SSE,158,10.2,17.3,74,0.00,CLR,,0.04,WeatherDisplay:10.37,2013-03-09 18:57:00,
2013-03-09 13:02:00,39.7,31.8,29.86,South,180,7.8,13.8,73,0.00,CLR,,0.04,WeatherDisplay:10.37,2013-03-09 19:02:00,
2013-03-09 13:07:00,39.6,31.6,29.86,SSW,202,7.1,9.2,73,0.00,CLR,,0.04,WeatherDisplay:10.37,2013-03-09 19:07:00,
2013-03-09 13:12:00,39.6,31.6,29.83,South,180,7.1,10.2,73,0.00,CLR,,0.04,WeatherDisplay:10.37,2013-03-09 19:12:00,
2013-03-09 13:17:00,39.6,31.6,29.83,SSE,158,11.2,16.1,73,0.00,CLR,,0.04,WeatherDisplay:10.37,2013-03-09 19:17:00,
2013-03-09 13:22:00,39.4,31.4,29.83,SSE,158,8.1,10.4,73,0.00,CLR,,0.04,WeatherDisplay:10.37,2013-03-09 19:22:00,
2013-03-09 13:27:00,39.4,31.8,29.83,SE,135,9.4,15.2,74,0.00,CLR,,0.04,WeatherDisplay:10.37,2013-03-09 19:27:00,
2013-03-09 13:32:00,39.4,31.8,29.83,SSE,158,6.4,13.8,74,0.00,CLR,,0.04,WeatherDisplay:10.37,2013-03-09 19:32:00,
2013-03-09 13:37:00,39.4,31.8,29.83,SSE,158,6.4,9.2,74,0.00,CLR,,0.04,WeatherDisplay:10.37,2013-03-09 19:37:00,
2013-03-09 13:42:00,39.4,32.1,29.83,SSE,158,6.2,19.4,75,0.00,CLR,,0.04,WeatherDisplay:10.37,2013-03-09 19:42:00,
2013-03-09 13:47:00,39.2,31.9,29.83,South,180,11.8,16.1,75,0.00,CLR,,0.04,WeatherDisplay:10.37,2013-03-09 19:47:00,
2013-03-09 13:52:00,39.2,31.9,29.83,SSE,158,10.5,19.6,75,0.00,CLR,,0.04,WeatherDisplay:10.37,2013-03-09 19:52:00,
2013-03-09 13:57:00,39.2,31.9,29.83,SSE,158,8.5,12.7,75,0.00,CLR,,0.04,WeatherDisplay:10.37,2013-03-09 19:57:00,
2013-03-09 14:02:00,39.2,31.9,29.83,SSE,158,7.1,11.5,75,0.00,CLR,,0.04,WeatherDisplay:10.37,2013-03-09 20:02:00,
2013-03-09 14:07:00,39.0,32.1,29.83,South,180,9.0,17.3,76,0.00,CLR,,0.04,WeatherDisplay:10.37,2013-03-09 20:07:00,
2013-03-09 14:12:00,38.8,31.9,29.83,South,180,9.8,12.7,76,0.00,CLR,,0.04,WeatherDisplay:10.37,2013-03-09 20:12:00,
2013-03-09 14:17:00,38.8,31.9,29.83,South,180,8.5,13.0,76,0.00,CLR,,0.04,WeatherDisplay:10.37,2013-03-09 20:17:00,
2013-03-09 14:22:00,38.8,32.2,29.83,South,180,7.6,12.7,77,0.00,CLR,,0.04,WeatherDisplay:10.37,2013-03-09 20:22:00,
2013-03-09 14:27:00,38.7,32.4,29.83,SE,135,5.9,8.1,78,0.00,CLR,,0.04,WeatherDisplay:10.37,2013-03-09 20:27:00,
2013-03-09 14:32:00,38.7,32.4,29.83,SSW,202,5.6,9.2,78,0.00,CLR,,0.04,WeatherDisplay:10.37,2013-03-09 20:32:00,
2013-03-09 14:37:00,38.7,33.0,29.83,SSE,158,7.4,10.4,80,0.00,CLR,,0.04,WeatherDisplay:10.37,2013-03-09 20:37:00,
2013-03-09 14:42:00,38.5,33.5,29.83,SSE,158,6.7,10.4,82,0.00,CLR,,0.04,WeatherDisplay:10.37,2013-03-09 20:42:00,
2013-03-09 14:47:00,38.3,33.6,29.83,SSE,158,4.9,8.1,83,0.02,RA,,0.06,WeatherDisplay:10.37,2013-03-09 20:47:00,
2013-03-09 14:52:00,38.1,34.0,29.83,SSE,158,7.8,10.4,85,0.02,RA,,0.06,WeatherDisplay:10.37,2013-03-09 20:52:00,
2013-03-09 14:57:00,37.9,34.1,29.80,SSE,158,6.9,9.2,86,0.05,RA,,0.09,WeatherDisplay:10.37,2013-03-09 20:57:00,
2013-03-09 15:02:00,37.9,34.4,29.80,SSE,158,3.8,5.8,87,0.06,RA,,0.11,WeatherDisplay:10.37,2013-03-09 21:02:00,
2013-03-09 15:07:00,37.9,34.4,29.80,SSE,158,3.3,5.8,87,0.06,RA,,0.11,WeatherDisplay:10.37,2013-03-09 21:07:00,
2013-03-09 15:12:00,37.8,34.5,29.77,SSE,158,3.8,6.2,88,0.08,RA,,0.13,WeatherDisplay:10.37,2013-03-09 21:12:00,
2013-03-09 15:17:00,37.8,34.8,29.77,South,180,4.7,8.1,89,0.10,RA,,0.15,WeatherDisplay:10.37,2013-03-09 21:17:00,
2013-03-09 15:22:00,37.8,35.1,29.77,SE,135,4.0,6.9,90,0.13,RA,,0.17,WeatherDisplay:10.37,2013-03-09 21:22:00,
2013-03-09 15:27:00,37.6,35.2,29.77,ESE,112,5.6,6.0,91,0.15,RA,,0.19,WeatherDisplay:10.37,2013-03-09 21:27:00,
2013-03-09 15:32:00,37.6,35.5,29.77,SSE,158,4.3,10.4,92,0.15,RA,,0.19,WeatherDisplay:10.37,2013-03-09 21:32:00,
2013-03-09 15:37:00,37.6,35.5,29.77,SSE,158,6.0,6.4,92,0.17,RA,,0.21,WeatherDisplay:10.37,2013-03-09 21:37:00,
2013-03-09 15:42:00,37.4,35.6,29.77,SSE,158,4.5,5.9,93,0.19,RA,,0.23,WeatherDisplay:10.37,2013-03-09 21:42:00,
2013-03-09 15:47:00,37.4,35.8,29.77,SSE,158,6.7,9.4,94,0.19,RA,,0.25,WeatherDisplay:10.37,2013-03-09 21:47:00,
2013-03-09 15:52:00,37.4,35.8,29.77,SSE,158,6.9,9.7,94,0.19,RA,,0.25,WeatherDisplay:10.37,2013-03-09 21:52:00,
2013-03-09 15:57:00,37.4,35.8,29.77,SE,135,3.1,4.6,94,0.19,RA,,0.27,WeatherDisplay:10.37,2013-03-09 21:57:00,
2013-03-09 16:02:00,37.4,36.1,29.77,South,180,7.6,7.6,95,0.17,RA,,0.27,WeatherDisplay:10.37,2013-03-09 22:02:00,
2013-03-09 16:07:00,37.6,36.3,29.77,SE,135,4.9,6.9,95,0.17,CLR,,0.27,WeatherDisplay:10.37,2013-03-09 22:07:00,
2013-03-09 16:12:00,37.6,36.3,29.80,South,180,5.9,6.9,95,0.15,CLR,,0.27,WeatherDisplay:10.37,2013-03-09 22:12:00,
2013-03-09 16:17:00,37.6,36.3,29.80,South,180,6.2,8.1,95,0.13,CLR,,0.27,WeatherDisplay:10.37,2013-03-09 22:17:00,
2013-03-09 16:22:00,37.6,36.3,29.80,SE,135,9.0,11.5,95,0.10,CLR,,0.27,WeatherDisplay:10.37,2013-03-09 22:22:00,
2013-03-09 16:27:00,37.6,36.3,29.77,South,180,3.6,7.1,95,0.08,CLR,,0.27,WeatherDisplay:10.37,2013-03-09 22:27:00,
2013-03-09 16:32:00,37.4,36.1,29.77,South,180,6.4,11.5,95,0.10,RA,,0.29,WeatherDisplay:10.37,2013-03-09 22:32:00,
2013-03-09 16:37:00,37.4,36.1,29.77,SE,135,6.0,6.9,95,0.08,RA,,0.29,WeatherDisplay:10.37,2013-03-09 22:37:00,
2013-03-09 16:42:00,37.4,36.4,29.77,South,180,6.4,10.4,96,0.06,,,0.29,WeatherDisplay:10.37,2013-03-09 22:42:00,
2013-03-09 16:47:00,37.4,36.4,29.77,SSE,158,7.1,10.4,96,0.04,CLR,,0.29,WeatherDisplay:10.37,2013-03-09 22:47:00,
2013-03-09 16:52:00,37.4,36.4,29.77,SSE,158,4.9,5.8,96,0.04,CLR,,0.29,WeatherDisplay:10.37,2013-03-09 22:52:00,
2013-03-09 16:57:00,37.4,36.4,29.77,SSW,202,7.1,9.2,96,0.02,CLR,,0.29,WeatherDisplay:10.37,2013-03-09 22:57:00,
2013-03-09 17:02:00,37.4,36.6,29.77,ESE,112,4.9,10.0,97,0.02,CLR,,0.29,WeatherDisplay:10.37,2013-03-09 23:02:00,
2013-03-09 17:07:00,37.4,36.6,29.77,South,180,7.1,8.1,97,0.04,RA,,0.31,WeatherDisplay:10.37,2013-03-09 23:07:00,
2013-03-09 17:12:00,37.4,36.6,29.77,SSE,158,7.4,8.1,97,0.04,RA,,0.31,WeatherDisplay:10.37,2013-03-09 23:12:00,
2013-03-09 17:17:00,37.2,36.7,29.77,South,180,6.0,8.1,98,0.04,,,0.31,WeatherDisplay:10.37,2013-03-09 23:17:00,
2013-03-09 17:22:00,37.2,36.7,29.77,SSE,158,7.4,8.1,98,0.04,CLR,,0.31,WeatherDisplay:10.37,2013-03-09 23:22:00,
2013-03-09 17:27:00,37.2,36.7,29.77,South,180,6.0,10.4,98,0.04,CLR,,0.31,WeatherDisplay:10.37,2013-03-09 23:27:00,
2013-03-09 17:33:00,37.2,36.7,29.77,South,180,8.7,9.2,98,0.04,RA,,0.33,WeatherDisplay:10.37,2013-03-09 23:33:00,
2013-03-09 17:38:00,37.2,36.7,29.77,SSE,158,5.4,10.4,98,0.04,RA,,0.36,WeatherDisplay:10.37,2013-03-09 23:38:00,
2013-03-09 17:43:00,37.2,36.7,29.77,South,180,5.4,8.1,98,0.06,RA,,0.36,WeatherDisplay:10.37,2013-03-09 23:43:00,
2013-03-09 17:48:00,37.2,36.7,29.77,South,180,4.9,8.1,98,0.08,RA,,0.38,WeatherDisplay:10.37,2013-03-09 23:48:00,
2013-03-09 17:53:00,37.2,36.7,29.77,South,180,4.0,8.1,98,0.10,RA,,0.40,WeatherDisplay:10.37,2013-03-09 23:53:00,
2013-03-09 17:58:00,37.2,36.7,29.77,SSE,168,3.0,9.0,98,0.00,RA,,0.40,WeatherDisplay:10.37,2013-03-09 23:58:00,
2013-03-09 18:03:00,37.4,36.9,29.77,SSE,166,6.0,8.0,98,0.00,CLR,,0.40,WeatherDisplay:10.37,2013-03-10 00:03:00,
2013-03-09 18:08:00,37.4,36.9,29.77,South,180,4.7,8.1,98,0.11,RA,,0.42,WeatherDisplay:10.37,2013-03-10 00:08:00,
2013-03-09 18:13:00,37.5,37.0,29.77,South,173,3.0,9.0,98,0.00,RA,,0.44,WeatherDisplay:10.37,2013-03-10 00:13:00,
2013-03-09 18:18:00,37.6,37.1,29.77,South,177,3.0,10.0,98,0.00,RA,,0.44,WeatherDisplay:10.37,2013-03-10 00:18:00,
2013-03-09 18:23:00,37.6,37.1,29.77,South,172,5.0,10.0,98,0.00,RA,,0.47,WeatherDisplay:10.37,2013-03-10 00:23:00,
2013-03-09 18:28:00,37.8,37.2,29.77,South,169,6.0,12.0,98,0.00,RA,,0.47,WeatherDisplay:10.37,2013-03-10 00:28:00,
2013-03-09 18:33:00,37.9,37.4,29.77,South,180,9.0,13.8,98,0.15,RA,,0.48,WeatherDisplay:10.37,2013-03-10 00:33:00,
2013-03-09 18:38:00,37.8,37.2,29.77,SE,135,4.7,6.2,98,0.15,RA,,0.48,WeatherDisplay:10.37,2013-03-10 00:38:00,
2013-03-09 18:43:00,37.9,37.4,29.77,SSE,158,6.0,8.1,98,0.12,CLR,,0.48,WeatherDisplay:10.37,2013-03-10 00:43:00,
2013-03-09 18:48:00,38.1,37.6,29.77,South,180,7.1,10.4,98,0.10,CLR,,0.48,WeatherDisplay:10.37,2013-03-10 00:48:00,
2013-03-09 18:53:00,38.1,37.6,29.77,SSE,158,6.2,8.1,98,0.11,RA,,0.50,WeatherDisplay:10.37,2013-03-10 00:53:00,
2013-03-09 18:58:00,38.1,37.6,29.74,SSE,158,6.0,9.2,98,0.11,RA,,0.50,WeatherDisplay:10.37,2013-03-10 00:58:00,
2013-03-09 19:03:00,38.1,37.6,29.74,SSW,202,6.7,8.1,98,0.11,CLR,,0.50,WeatherDisplay:10.37,2013-03-10 01:03:00,
2013-03-09 19:08:00,38.1,37.6,29.74,SSW,202,5.6,8.1,98,0.08,CLR,,0.50,WeatherDisplay:10.37,2013-03-10 01:08:00,
2013-03-09 19:13:00,38.3,37.8,29.74,SSE,158,5.9,10.4,98,0.06,CLR,,0.50,WeatherDisplay:10.37,2013-03-10 01:13:00,
2013-03-09 19:18:00,38.3,37.8,29.74,SSE,158,5.4,6.9,98,0.06,CLR,,0.50,WeatherDisplay:10.37,2013-03-10 01:18:00,
2013-03-09 19:23:00,38.3,37.8,29.74,South,180,6.2,8.1,98,0.04,CLR,,0.50,WeatherDisplay:10.37,2013-03-10 01:23:00,
2013-03-09 19:28:00,38.3,37.8,29.77,SSW,202,4.5,6.9,98,0.04,CLR,,0.50,WeatherDisplay:10.37,2013-03-10 01:28:00,
2013-03-09 19:33:00,38.3,37.8,29.77,South,180,5.6,13.0,98,0.05,RA,,0.52,WeatherDisplay:10.37,2013-03-10 01:33:00,
2013-03-09 19:38:00,38.3,37.8,29.77,ESE,112,6.4,6.9,98,0.05,RA,,0.52,WeatherDisplay:10.37,2013-03-10 01:38:00,
2013-03-09 19:43:00,38.1,37.6,29.77,SSE,158,4.3,8.1,98,0.05,,,0.52,WeatherDisplay:10.37,2013-03-10 01:43:00,
2013-03-09 19:48:00,38.1,37.6,29.77,NW,315,4.9,8.1,98,0.05,CLR,,0.52,WeatherDisplay:10.37,2013-03-10 01:48:00,
2013-03-09 19:53:00,38.1,37.6,29.77,South,180,4.7,9.2,98,0.02,CLR,,0.52,WeatherDisplay:10.37,2013-03-10 01:53:00,
2013-03-09 19:58:00,38.1,37.6,29.77,South,180,5.9,9.2,98,0.02,CLR,,0.52,WeatherDisplay:10.37,2013-03-10 01:58:00,
2013-03-09 20:03:00,38.1,37.6,29.77,SSW,202,2.9,5.8,98,0.02,CLR,,0.52,WeatherDisplay:10.37,2013-03-10 02:03:00,
2013-03-09 20:08:00,38.1,37.6,29.77,SSE,158,4.7,10.4,98,0.02,CLR,,0.52,WeatherDisplay:10.37,2013-03-10 02:08:00,
2013-03-09 20:13:00,37.9,37.4,29.77,South,180,2.2,2.3,98,0.02,CLR,,0.52,WeatherDisplay:10.37,2013-03-10 02:13:00,
2013-03-09 20:18:00,37.9,37.4,29.77,SSW,202,1.6,5.4,98,0.02,CLR,,0.52,WeatherDisplay:10.37,2013-03-10 02:18:00,
2013-03-09 20:23:00,38.1,37.6,29.77,South,180,2.4,5.8,98,0.02,CLR,,0.52,WeatherDisplay:10.37,2013-03-10 02:23:00,
2013-03-09 20:28:00,38.1,37.6,29.77,South,180,3.8,5.8,98,0.04,RA,,0.55,WeatherDisplay:10.37,2013-03-10 02:28:00,
2013-03-09 20:33:00,37.9,37.4,29.77,South,180,3.1,4.6,98,0.02,RA,,0.55,WeatherDisplay:10.37,2013-03-10 02:33:00,
2013-03-09 20:38:00,38.1,37.6,29.77,SSE,158,4.9,5.8,98,0.02,,,0.55,WeatherDisplay:10.37,2013-03-10 02:38:00,
2013-03-09 20:43:00,37.9,37.4,29.77,SE,135,2.4,4.6,98,0.02,CLR,,0.55,WeatherDisplay:10.37,2013-03-10 02:43:00,
2013-03-09 20:48:00,37.9,37.4,29.77,SE,135,3.3,5.8,98,0.02,CLR,,0.55,WeatherDisplay:10.37,2013-03-10 02:48:00,
2013-03-09 20:53:00,37.9,37.4,29.77,SSE,158,4.7,6.9,98,0.04,RA,,0.56,WeatherDisplay:10.37,2013-03-10 02:53:00,
2013-03-09 20:58:00,37.8,37.2,29.74,SSE,158,3.1,6.4,98,0.04,RA,,0.56,WeatherDisplay:10.37,2013-03-10 02:58:00,
2013-03-09 21:03:00,37.8,37.2,29.74,South,180,2.9,9.2,98,0.04,,,0.56,WeatherDisplay:10.37,2013-03-10 03:03:00,
2013-03-09 21:08:00,37.9,37.4,29.74,South,180,6.4,10.4,98,0.04,CLR,,0.56,WeatherDisplay:10.37,2013-03-10 03:08:00,
2013-03-09 21:13:00,37.8,37.2,29.74,SSE,158,3.3,5.8,98,0.04,CLR,,0.56,WeatherDisplay:10.37,2013-03-10 03:13:00,
2013-03-09 21:18:00,37.8,37.2,29.74,SE,135,4.3,6.9,98,0.04,CLR,,0.56,WeatherDisplay:10.37,2013-03-10 03:18:00,
2013-03-09 21:23:00,37.8,37.2,29.74,South,180,5.4,5.9,98,0.04,CLR,,0.56,WeatherDisplay:10.37,2013-03-10 03:23:00,
2013-03-09 21:28:00,37.8,37.2,29.71,South,180,4.7,9.2,98,0.02,CLR,,0.56,WeatherDisplay:10.37,2013-03-10 03:28:00,
2013-03-09 21:33:00,37.8,37.2,29.71,SSE,158,3.3,5.8,98,0.02,CLR,,0.56,WeatherDisplay:10.37,2013-03-10 03:33:00,
2013-03-09 21:38:00,37.8,37.2,29.71,South,180,6.2,8.5,98,0.02,CLR,,0.56,WeatherDisplay:10.37,2013-03-10 03:38:00,
2013-03-09 21:43:00,37.8,37.2,29.74,SSE,158,4.3,10.0,98,0.02,CLR,,0.56,WeatherDisplay:10.37,2013-03-10 03:43:00,
2013-03-09 21:48:00,37.9,37.4,29.74,West,270,2.4,8.1,98,0.02,CLR,,0.56,WeatherDisplay:10.37,2013-03-10 03:48:00,
2013-03-09 21:53:00,38.1,37.6,29.74,SE,135,3.8,8.1,98,0.00,CLR,,0.56,WeatherDisplay:10.37,2013-03-10 03:53:00,
2013-03-09 21:58:00,37.9,37.4,29.74,West,270,3.6,5.8,98,0.00,CLR,,0.56,WeatherDisplay:10.37,2013-03-10 03:58:00,
2013-03-09 22:03:00,37.9,37.4,29.74,SW,225,2.2,2.3,98,0.00,CLR,,0.56,WeatherDisplay:10.37,2013-03-10 04:03:00,
2013-03-09 22:08:00,37.9,37.4,29.74,SSE,158,2.9,6.9,98,0.00,CLR,,0.56,WeatherDisplay:10.37,2013-03-10 04:08:00,
2013-03-09 22:13:00,38.1,37.6,29.74,SW,225,3.3,3.5,98,0.00,CLR,,0.56,WeatherDisplay:10.37,2013-03-10 04:13:00,
2013-03-09 22:18:00,38.1,37.6,29.74,SSW,202,2.4,3.5,98,0.00,CLR,,0.56,WeatherDisplay:10.37,2013-03-10 04:18:00,
2013-03-09 22:23:00,38.3,37.8,29.74,SSW,202,3.1,6.9,98,0.00,CLR,,0.56,WeatherDisplay:10.37,2013-03-10 04:23:00,
2013-03-09 22:28:00,38.1,37.6,29.74,SW,225,4.3,6.4,98,0.02,RA,,0.58,WeatherDisplay:10.37,2013-03-10 04:28:00,
2013-03-09 22:33:00,38.1,37.6,29.74,SSW,202,2.6,3.5,98,0.02,RA,,0.58,WeatherDisplay:10.37,2013-03-10 04:33:00,
2013-03-09 22:38:00,37.9,37.4,29.74,NW,315,1.1,1.1,98,0.02,CLR,,0.58,WeatherDisplay:10.37,2013-03-10 04:38:00,
2013-03-09 22:43:00,37.9,37.4,29.77,NW,315,1.1,2.3,98,0.02,CLR,,0.58,WeatherDisplay:10.37,2013-03-10 04:43:00,
2013-03-09 22:48:00,37.9,37.4,29.77,WSW,248,0.0,2.3,98,0.02,CLR,,0.58,WeatherDisplay:10.37,2013-03-10 04:48:00,
2013-03-09 22:53:00,37.9,37.4,29.77,WSW,248,0.0,0.0,98,0.02,CLR,,0.58,WeatherDisplay:10.37,2013-03-10 04:53:00,
2013-03-09 22:58:00,37.8,37.2,29.74,South,180,0.0,2.2,98,0.02,CLR,,0.58,WeatherDisplay:10.37,2013-03-10 04:58:00,
2013-03-09 23:00:00,37.8,37.2,29.74,SSW,202,1.4,2.3,98,0.02,CLR,,0.58,WeatherDisplay:10.37,2013-03-10 05:00:00,
2013-03-09 23:05:00,37.8,37.2,29.74,SSW,202,0.0,0.0,98,0.02,CLR,,0.58,WeatherDisplay:10.37,2013-03-10 05:05:00,
2013-03-09 23:10:00,37.8,37.2,29.71,SE,135,1.4,2.3,98,0.02,CLR,,0.58,WeatherDisplay:10.37,2013-03-10 05:10:00,
2013-03-09 23:15:00,37.6,37.1,29.71,SE,135,2.0,2.6,98,0.02,CLR,,0.58,WeatherDisplay:10.37,2013-03-10 05:15:00,
2013-03-09 23:20:00,37.6,37.1,29.71,ESE,112,1.1,2.3,98,0.02,CLR,,0.58,WeatherDisplay:10.37,2013-03-10 05:20:00,
2013-03-09 23:25:00,37.6,37.1,29.68,SE,135,1.4,2.3,98,0.00,CLR,,0.58,WeatherDisplay:10.37,2013-03-10 05:25:00,
2013-03-09 23:30:00,37.4,36.9,29.68,SE,135,0.0,0.0,98,0.00,CLR,,0.58,WeatherDisplay:10.37,2013-03-10 05:30:00,
2013-03-09 23:35:00,37.4,36.9,29.68,SE,135,0.0,0.0,98,0.00,CLR,,0.58,WeatherDisplay:10.37,2013-03-10 05:35:00,
2013-03-09 23:40:00,37.4,36.9,29.71,West,270,0.9,1.1,98,0.00,CLR,,0.58,WeatherDisplay:10.37,2013-03-10 05:40:00,
2013-03-09 23:45:00,37.2,36.7,29.71,West,270,0.0,0.0,98,0.00,CLR,,0.58,WeatherDisplay:10.37,2013-03-10 05:45:00,
2013-03-09 23:50:00,37.2,36.7,29.71,WSW,248,0.0,0.0,98,0.00,CLR,,0.58,WeatherDisplay:10.37,2013-03-10 05:50:00,
2013-03-09 23:55:00,37.2,36.7,29.71,WNW,292,1.4,2.2,98,0.00,CLR,,0.58,WeatherDisplay:10.37,2013-03-10 05:55:00,